sensor_id;sensor_type;location;lat;lon;timestamp;pressure;altitude;pressure_sealevel;temperature;humidity
11912;BME280;6016;41.928;25.556;2022-08-14T00:02:05;98321.88;;;28.20;47.32
11912;BME280;6016;41.928;25.556;2022-08-14T00:04:33;98238.47;;;27.55;47.84
11912;BME280;6016;41.928;25.556;2022-08-14T00:07:01;98341.09;;;28.29;47.75
11912;BME280;6016;41.928;25.556;2022-08-14T00:09:27;98287.72;;;27.93;47.47
11912;BME280;6016;41.928;25.556;2022-08-14T00:11:54;98325.94;;;28.18;47.85
11912;BME280;6016;41.928;25.556;2022-08-14T00:14:25;98333.25;;;28.12;48.13
11912;BME280;6016;41.928;25.556;2022-08-14T00:16:52;98324.00;;;28.13;48.10
11912;BME280;6016;41.928;25.556;2022-08-14T00:19:20;98272.84;;;27.80;47.99
11912;BME280;6016;41.928;25.556;2022-08-14T00:21:47;98328.66;;;28.18;47.64
11912;BME280;6016;41.928;25.556;2022-08-14T00:24:14;98325.38;;;28.16;48.11
11912;BME280;6016;41.928;25.556;2022-08-14T00:26:41;98326.72;;;28.13;47.68
11912;BME280;6016;41.928;25.556;2022-08-14T00:29:07;98315.91;;;27.92;48.07
11912;BME280;6016;41.928;25.556;2022-08-14T00:31:36;98322.41;;;28.02;48.62
11912;BME280;6016;41.928;25.556;2022-08-14T00:34:03;98290.19;;;27.74;48.35
11912;BME280;6016;41.928;25.556;2022-08-14T00:36:30;98327.28;;;28.05;48.03
11912;BME280;6016;41.928;25.556;2022-08-14T00:38:57;98308.06;;;27.96;48.48
11912;BME280;6016;41.928;25.556;2022-08-14T00:41:29;98326.19;;;28.06;48.07
11912;BME280;6016;41.928;25.556;2022-08-14T00:43:57;98324.31;;;28.06;48.05
11912;BME280;6016;41.928;25.556;2022-08-14T00:46:24;98287.75;;;27.83;48.51
11912;BME280;6016;41.928;25.556;2022-08-14T00:48:52;98319.13;;;28.05;48.59
11912;BME280;6016;41.928;25.556;2022-08-14T00:51:19;98317.28;;;28.00;48.53
11912;BME280;6016;41.928;25.556;2022-08-14T00:53:46;98317.53;;;28.04;48.03
11912;BME280;6016;41.928;25.556;2022-08-14T00:56:16;98312.63;;;28.06;48.13
11912;BME280;6016;41.928;25.556;2022-08-14T00:58:44;98312.91;;;28.09;48.04
11912;BME280;6016;41.928;25.556;2022-08-14T01:01:11;98305.56;;;28.15;48.45
11912;BME280;6016;41.928;25.556;2022-08-14T01:03:39;98306.66;;;28.14;48.46
11912;BME280;6016;41.928;25.556;2022-08-14T01:06:09;98305.28;;;28.12;47.95
11912;BME280;6016;41.928;25.556;2022-08-14T01:08:37;98297.16;;;28.17;47.82
11912;BME280;6016;41.928;25.556;2022-08-14T01:11:05;98310.19;;;28.20;47.97
11912;BME280;6016;41.928;25.556;2022-08-14T01:13:36;98296.63;;;28.15;48.00
11912;BME280;6016;41.928;25.556;2022-08-14T01:16:06;98289.59;;;27.98;48.33
11912;BME280;6016;41.928;25.556;2022-08-14T01:18:33;98294.72;;;28.15;47.78
11912;BME280;6016;41.928;25.556;2022-08-14T01:21:22;98282.81;;;28.06;48.05
11912;BME280;6016;41.928;25.556;2022-08-14T01:23:51;98288.50;;;28.15;48.01
11912;BME280;6016;41.928;25.556;2022-08-14T01:26:20;98283.34;;;28.18;48.29
11912;BME280;6016;41.928;25.556;2022-08-14T01:28:48;98245.47;;;27.87;48.19
11912;BME280;6016;41.928;25.556;2022-08-14T01:31:17;98176.44;;;27.33;48.62
11912;BME280;6016;41.928;25.556;2022-08-14T01:33:46;98282.00;;;28.05;48.30
11912;BME280;6016;41.928;25.556;2022-08-14T01:36:14;98277.94;;;28.03;48.76
11912;BME280;6016;41.928;25.556;2022-08-14T01:38:43;98279.59;;;27.99;48.58
11912;BME280;6016;41.928;25.556;2022-08-14T01:41:14;98253.31;;;27.84;48.94
11912;BME280;6016;41.928;25.556;2022-08-14T01:43:46;98264.97;;;27.89;48.89
11912;BME280;6016;41.928;25.556;2022-08-14T01:46:15;98281.22;;;28.00;48.90
11912;BME280;6016;41.928;25.556;2022-08-14T01:48:43;98265.75;;;28.05;48.27
11912;BME280;6016;41.928;25.556;2022-08-14T01:51:11;98260.06;;;28.07;48.20
11912;BME280;6016;41.928;25.556;2022-08-14T01:53:44;98262.47;;;28.14;48.53
11912;BME280;6016;41.928;25.556;2022-08-14T01:56:16;98260.56;;;28.14;48.23
11912;BME280;6016;41.928;25.556;2022-08-14T01:58:43;98258.94;;;28.13;48.62
11912;BME280;6016;41.928;25.556;2022-08-14T02:01:13;98259.19;;;28.12;48.39
11912;BME280;6016;41.928;25.556;2022-08-14T02:03:41;98263.00;;;28.16;48.72
11912;BME280;6016;41.928;25.556;2022-08-14T02:06:09;98253.25;;;28.20;48.25
11912;BME280;6016;41.928;25.556;2022-08-14T02:08:36;98222.38;;;28.00;48.24
11912;BME280;6016;41.928;25.556;2022-08-14T02:11:08;98242.66;;;28.18;48.26
11912;BME280;6016;41.928;25.556;2022-08-14T02:13:51;98248.91;;;28.19;48.83
11912;BME280;6016;41.928;25.556;2022-08-14T02:16:21;98245.09;;;28.20;48.64
11912;BME280;6016;41.928;25.556;2022-08-14T02:18:50;98242.91;;;28.17;48.22
11912;BME280;6016;41.928;25.556;2022-08-14T02:21:17;98243.47;;;28.19;48.25
11912;BME280;6016;41.928;25.556;2022-08-14T02:23:45;98206.66;;;28.02;48.47
11912;BME280;6016;41.928;25.556;2022-08-14T02:26:16;98235.63;;;28.17;48.36
11912;BME280;6016;41.928;25.556;2022-08-14T02:28:44;98241.03;;;28.17;48.91
11912;BME280;6016;41.928;25.556;2022-08-14T02:31:11;98238.31;;;28.17;48.67
11912;BME280;6016;41.928;25.556;2022-08-14T02:33:39;98239.38;;;28.16;48.33
11912;BME280;6016;41.928;25.556;2022-08-14T02:36:07;98233.16;;;28.16;48.72
11912;BME280;6016;41.928;25.556;2022-08-14T02:38:35;98240.47;;;28.15;48.89
11912;BME280;6016;41.928;25.556;2022-08-14T02:41:03;98231.81;;;28.13;48.39
11912;BME280;6016;41.928;25.556;2022-08-14T02:43:32;98226.66;;;28.12;48.35
11912;BME280;6016;41.928;25.556;2022-08-14T02:45:59;98227.75;;;28.11;48.75
11912;BME280;6016;41.928;25.556;2022-08-14T02:48:27;98231.81;;;28.13;48.60
11912;BME280;6016;41.928;25.556;2022-08-14T02:50:56;98235.06;;;28.15;48.61
11912;BME280;6016;41.928;25.556;2022-08-14T02:53:23;98206.94;;;27.96;48.04
11912;BME280;6016;41.928;25.556;2022-08-14T02:55:52;98233.16;;;28.16;48.44
11912;BME280;6016;41.928;25.556;2022-08-14T02:58:21;98225.03;;;28.11;48.20
11912;BME280;6016;41.928;25.556;2022-08-14T03:00:50;98076.56;;;27.10;47.97
11912;BME280;6016;41.928;25.556;2022-08-14T03:03:17;98228.56;;;28.11;48.18
11912;BME280;6016;41.928;25.556;2022-08-14T03:05:49;98229.66;;;28.10;48.13
11912;BME280;6016;41.928;25.556;2022-08-14T03:08:16;98211.25;;;28.02;48.43
11912;BME280;6016;41.928;25.556;2022-08-14T03:10:43;98231.03;;;28.07;48.44
11912;BME280;6016;41.928;25.556;2022-08-14T03:13:11;98232.94;;;28.07;48.50
11912;BME280;6016;41.928;25.556;2022-08-14T03:15:38;98155.03;;;27.57;47.92
11912;BME280;6016;41.928;25.556;2022-08-14T03:18:10;98238.06;;;28.08;48.06
11912;BME280;6016;41.928;25.556;2022-08-14T03:20:37;98241.06;;;28.07;48.36
11912;BME280;6016;41.928;25.556;2022-08-14T03:23:04;98247.03;;;28.04;48.34
11912;BME280;6016;41.928;25.556;2022-08-14T03:25:31;98254.34;;;28.03;48.02
11912;BME280;6016;41.928;25.556;2022-08-14T03:27:58;98263.31;;;27.99;48.17
11912;BME280;6016;41.928;25.556;2022-08-14T03:30:29;98266.03;;;27.93;48.09
11912;BME280;6016;41.928;25.556;2022-08-14T03:32:57;98266.06;;;27.88;48.43
11912;BME280;6016;41.928;25.556;2022-08-14T03:35:26;98271.22;;;27.90;48.17
11912;BME280;6016;41.928;25.556;2022-08-14T03:37:55;98276.06;;;27.93;48.20
11912;BME280;6016;41.928;25.556;2022-08-14T03:40:22;98272.00;;;27.96;48.09
11912;BME280;6016;41.928;25.556;2022-08-14T03:42:50;98272.25;;;27.99;48.55
11912;BME280;6016;41.928;25.556;2022-08-14T03:45:17;98276.34;;;27.97;48.08
11912;BME280;6016;41.928;25.556;2022-08-14T03:47:44;98274.44;;;27.97;48.31
11912;BME280;6016;41.928;25.556;2022-08-14T03:50:11;98270.38;;;28.00;47.87
11912;BME280;6016;41.928;25.556;2022-08-14T03:52:40;98258.16;;;28.02;47.21
11912;BME280;6016;41.928;25.556;2022-08-14T03:55:10;98248.41;;;28.01;47.09
11912;BME280;6016;41.928;25.556;2022-08-14T03:57:38;98247.84;;;27.99;47.65
11912;BME280;6016;41.928;25.556;2022-08-14T04:00:07;98233.78;;;27.92;47.45
11912;BME280;6016;41.928;25.556;2022-08-14T04:02:35;98245.16;;;27.94;47.18
11912;BME280;6016;41.928;25.556;2022-08-14T04:05:03;98240.84;;;27.93;47.37
11912;BME280;6016;41.928;25.556;2022-08-14T04:07:31;98237.59;;;27.91;47.34
11912;BME280;6016;41.928;25.556;2022-08-14T04:10:00;98193.75;;;27.68;47.51
11912;BME280;6016;41.928;25.556;2022-08-14T04:12:27;98215.66;;;27.77;47.51
11912;BME280;6016;41.928;25.556;2022-08-14T04:14:54;98231.34;;;27.90;47.80
11912;BME280;6016;41.928;25.556;2022-08-14T04:17:21;98231.06;;;27.92;47.65
11912;BME280;6016;41.928;25.556;2022-08-14T04:19:48;98209.94;;;27.84;47.25
11912;BME280;6016;41.928;25.556;2022-08-14T04:22:15;98224.88;;;27.86;47.78
11912;BME280;6016;41.928;25.556;2022-08-14T04:24:42;98223.22;;;27.90;48.11
11912;BME280;6016;41.928;25.556;2022-08-14T04:27:11;98217.22;;;27.93;47.50
11912;BME280;6016;41.928;25.556;2022-08-14T04:29:39;98228.91;;;27.94;47.58
11912;BME280;6016;41.928;25.556;2022-08-14T04:32:07;98227.53;;;27.91;48.25
11912;BME280;6016;41.928;25.556;2022-08-14T04:34:35;98227.09;;;27.69;48.16
11912;BME280;6016;41.928;25.556;2022-08-14T04:37:04;98234.06;;;27.80;48.47
11912;BME280;6016;41.928;25.556;2022-08-14T04:39:49;98234.38;;;27.78;48.29
11912;BME280;6016;41.928;25.556;2022-08-14T04:42:34;98233.84;;;27.71;48.76
11912;BME280;6016;41.928;25.556;2022-08-14T04:45:20;98227.88;;;27.69;49.00
11912;BME280;6016;41.928;25.556;2022-08-14T04:47:48;98197.31;;;27.32;48.93
11912;BME280;6016;41.928;25.556;2022-08-14T04:50:32;98223.53;;;27.47;49.70
11912;BME280;6016;41.928;25.556;2022-08-14T04:53:00;98218.13;;;27.47;49.38
11912;BME280;6016;41.928;25.556;2022-08-14T04:55:27;98223.53;;;27.47;49.36
11912;BME280;6016;41.928;25.556;2022-08-14T04:57:55;98173.22;;;27.15;49.15
11912;BME280;6016;41.928;25.556;2022-08-14T05:00:23;98218.69;;;27.49;49.37
11912;BME280;6016;41.928;25.556;2022-08-14T05:02:51;98223.53;;;27.47;49.70
11912;BME280;6016;41.928;25.556;2022-08-14T05:05:20;98228.69;;;27.49;49.98
11912;BME280;6016;41.928;25.556;2022-08-14T05:07:49;98225.22;;;27.54;49.68
11912;BME280;6016;41.928;25.556;2022-08-14T05:10:16;98226.81;;;27.65;49.50
11912;BME280;6016;41.928;25.556;2022-08-14T05:12:51;98212.97;;;27.72;49.26
11912;BME280;6016;41.928;25.556;2022-08-14T05:15:19;98230.31;;;27.76;49.08
11912;BME280;6016;41.928;25.556;2022-08-14T05:17:46;98221.91;;;27.77;49.62
11912;BME280;6016;41.928;25.556;2022-08-14T05:20:14;98229.50;;;27.75;49.31
11912;BME280;6016;41.928;25.556;2022-08-14T05:22:41;98227.59;;;27.81;49.19
11912;BME280;6016;41.928;25.556;2022-08-14T05:25:10;98241.16;;;27.81;49.44
11912;BME280;6016;41.928;25.556;2022-08-14T05:27:38;98226.00;;;27.59;49.89
11912;BME280;6016;41.928;25.556;2022-08-14T05:30:06;98244.69;;;27.76;49.87
11912;BME280;6016;41.928;25.556;2022-08-14T05:32:34;98243.28;;;27.79;49.70
11912;BME280;6016;41.928;25.556;2022-08-14T05:35:01;98240.59;;;27.79;49.76
11912;BME280;6016;41.928;25.556;2022-08-14T05:37:28;98248.19;;;27.77;49.93
11912;BME280;6016;41.928;25.556;2022-08-14T05:39:56;98236.81;;;27.75;49.88
11912;BME280;6016;41.928;25.556;2022-08-14T05:42:23;98235.75;;;27.71;49.86
11912;BME280;6016;41.928;25.556;2022-08-14T05:44:51;98242.22;;;27.75;50.07
11912;BME280;6016;41.928;25.556;2022-08-14T05:47:18;98246.31;;;27.67;50.49
11912;BME280;6016;41.928;25.556;2022-08-14T05:49:46;98240.09;;;27.61;50.26
11912;BME280;6016;41.928;25.556;2022-08-14T05:52:13;98233.28;;;27.48;50.41
11912;BME280;6016;41.928;25.556;2022-08-14T05:54:40;98202.44;;;27.34;50.81
11912;BME280;6016;41.928;25.556;2022-08-14T05:57:15;98243.34;;;27.63;50.24
11912;BME280;6016;41.928;25.556;2022-08-14T05:59:42;98231.41;;;27.70;50.41
11912;BME280;6016;41.928;25.556;2022-08-14T06:02:09;98225.72;;;27.66;50.63
11912;BME280;6016;41.928;25.556;2022-08-14T06:04:36;98171.03;;;27.33;50.20
11912;BME280;6016;41.928;25.556;2022-08-14T06:07:05;98237.13;;;27.58;50.62
11912;BME280;6016;41.928;25.556;2022-08-14T06:09:32;98241.69;;;27.52;50.89
11912;BME280;6016;41.928;25.556;2022-08-14T06:11:59;98211.09;;;27.36;50.26
11912;BME280;6016;41.928;25.556;2022-08-14T06:14:26;98238.47;;;27.55;50.77
11912;BME280;6016;41.928;25.556;2022-08-14T06:16:52;98242.81;;;27.61;50.44
11912;BME280;6016;41.928;25.556;2022-08-14T06:19:19;98237.91;;;27.63;50.43
11912;BME280;6016;41.928;25.556;2022-08-14T06:21:47;98231.16;;;27.66;50.68
11912;BME280;6016;41.928;25.556;2022-08-14T06:24:15;98225.69;;;27.71;50.50
11912;BME280;6016;41.928;25.556;2022-08-14T06:26:42;98236.00;;;27.79;49.79
11912;BME280;6016;41.928;25.556;2022-08-14T06:29:08;98226.50;;;27.82;49.88
11912;BME280;6016;41.928;25.556;2022-08-14T06:31:36;98226.22;;;27.84;50.10
11912;BME280;6016;41.928;25.556;2022-08-14T06:34:02;98232.72;;;27.83;49.85
11912;BME280;6016;41.928;25.556;2022-08-14T06:36:29;98231.63;;;27.84;49.72
11912;BME280;6016;41.928;25.556;2022-08-14T06:38:56;98229.22;;;27.82;49.45
11912;BME280;6016;41.928;25.556;2022-08-14T06:41:24;98238.44;;;27.76;49.87
11912;BME280;6016;41.928;25.556;2022-08-14T06:43:51;98223.56;;;27.68;49.77
11912;BME280;6016;41.928;25.556;2022-08-14T06:46:18;98223.81;;;27.66;49.96
11912;BME280;6016;41.928;25.556;2022-08-14T06:48:47;98238.69;;;27.74;49.73
11912;BME280;6016;41.928;25.556;2022-08-14T06:51:14;98227.84;;;27.85;50.02
11912;BME280;6016;41.928;25.556;2022-08-14T06:53:41;98227.31;;;27.88;49.45
11912;BME280;6016;41.928;25.556;2022-08-14T06:56:08;98228.06;;;27.93;49.34
11912;BME280;6016;41.928;25.556;2022-08-14T06:58:36;98222.69;;;27.88;49.52
11912;BME280;6016;41.928;25.556;2022-08-14T07:01:03;98225.38;;;27.88;49.36
11912;BME280;6016;41.928;25.556;2022-08-14T07:03:47;98203.75;;;27.73;49.26
11912;BME280;6016;41.928;25.556;2022-08-14T07:06:31;98159.38;;;27.58;49.14
11912;BME280;6016;41.928;25.556;2022-08-14T07:08:58;98223.19;;;28.01;49.79
11912;BME280;6016;41.928;25.556;2022-08-14T07:11:25;98226.13;;;28.09;49.29
11912;BME280;6016;41.928;25.556;2022-08-14T07:13:53;98225.28;;;28.25;48.71
11912;BME280;6016;41.928;25.556;2022-08-14T07:16:20;98224.69;;;28.38;49.08
11912;BME280;6016;41.928;25.556;2022-08-14T07:18:47;98183.56;;;28.20;48.72
11912;BME280;6016;41.928;25.556;2022-08-14T07:21:14;98204.28;;;28.51;48.73
11912;BME280;6016;41.928;25.556;2022-08-14T07:23:41;98148.78;;;28.28;48.53
11912;BME280;6016;41.928;25.556;2022-08-14T07:26:08;98190.09;;;28.59;48.06
11912;BME280;6016;41.928;25.556;2022-08-14T07:28:36;98212.75;;;28.84;47.55
11912;BME280;6016;41.928;25.556;2022-08-14T07:31:07;98205.38;;;28.90;47.17
11912;BME280;6016;41.928;25.556;2022-08-14T07:33:38;98202.16;;;28.88;46.73
11912;BME280;6016;41.928;25.556;2022-08-14T07:36:08;98162.44;;;28.57;46.86
11912;BME280;6016;41.928;25.556;2022-08-14T07:38:35;98198.59;;;28.87;46.09
11912;BME280;6016;41.928;25.556;2022-08-14T07:41:06;98170.97;;;28.80;46.55
11912;BME280;6016;41.928;25.556;2022-08-14T07:43:34;98203.16;;;28.97;46.45
11912;BME280;6016;41.928;25.556;2022-08-14T07:46:02;98202.59;;;29.00;45.63
11912;BME280;6016;41.928;25.556;2022-08-14T07:48:30;98198.78;;;29.01;46.18
11912;BME280;6016;41.928;25.556;2022-08-14T07:50:57;98201.69;;;29.10;45.85
11912;BME280;6016;41.928;25.556;2022-08-14T07:53:24;98196.44;;;29.19;45.91
11912;BME280;6016;41.928;25.556;2022-08-14T07:55:51;98196.66;;;29.28;46.22
11912;BME280;6016;41.928;25.556;2022-08-14T07:58:19;98194.06;;;29.42;45.91
11912;BME280;6016;41.928;25.556;2022-08-14T08:00:45;98195.97;;;29.46;45.43
11912;BME280;6016;41.928;25.556;2022-08-14T08:03:13;98197.53;;;29.53;45.61
11912;BME280;6016;41.928;25.556;2022-08-14T08:05:41;98160.16;;;29.39;45.21
11912;BME280;6016;41.928;25.556;2022-08-14T08:08:09;98135.31;;;29.22;45.65
11912;BME280;6016;41.928;25.556;2022-08-14T08:10:37;98194.25;;;29.56;45.48
11912;BME280;6016;41.928;25.556;2022-08-14T08:13:08;98180.22;;;29.43;45.05
11912;BME280;6016;41.928;25.556;2022-08-14T08:15:36;98198.34;;;29.53;45.48
11912;BME280;6016;41.928;25.556;2022-08-14T08:18:05;98156.25;;;29.21;45.27
11912;BME280;6016;41.928;25.556;2022-08-14T08:20:34;98192.56;;;29.60;45.59
11912;BME280;6016;41.928;25.556;2022-08-14T08:23:04;98189.91;;;29.55;45.52
11912;BME280;6016;41.928;25.556;2022-08-14T08:25:33;98193.38;;;29.60;45.85
11912;BME280;6016;41.928;25.556;2022-08-14T08:28:03;98196.28;;;29.69;45.42
11912;BME280;6016;41.928;25.556;2022-08-14T08:30:32;98182.44;;;29.66;45.87
11912;BME280;6016;41.928;25.556;2022-08-14T08:33:00;98190.25;;;29.72;45.52
11912;BME280;6016;41.928;25.556;2022-08-14T08:35:30;98182.19;;;29.62;46.44
11912;BME280;6016;41.928;25.556;2022-08-14T08:38:05;98185.91;;;29.71;45.64
11912;BME280;6016;41.928;25.556;2022-08-14T08:40:33;98165.34;;;29.65;46.21
11912;BME280;6016;41.928;25.556;2022-08-14T08:43:02;98171.81;;;29.69;46.06
11912;BME280;6016;41.928;25.556;2022-08-14T08:45:32;98173.34;;;29.75;46.10
11912;BME280;6016;41.928;25.556;2022-08-14T08:47:59;98175.44;;;29.84;46.01
11912;BME280;6016;41.928;25.556;2022-08-14T08:50:29;98179.50;;;29.86;45.51
11912;BME280;6016;41.928;25.556;2022-08-14T08:52:58;98143.50;;;29.70;46.05
11912;BME280;6016;41.928;25.556;2022-08-14T08:55:29;98168.38;;;29.83;45.80
11912;BME280;6016;41.928;25.556;2022-08-14T08:57:58;98169.47;;;29.82;45.74
11912;BME280;6016;41.928;25.556;2022-08-14T09:00:26;98159.41;;;29.82;45.81
11912;BME280;6016;41.928;25.556;2022-08-14T09:03:01;98159.63;;;29.86;45.90
11912;BME280;6016;41.928;25.556;2022-08-14T09:05:29;98162.22;;;29.96;45.66
11912;BME280;6016;41.928;25.556;2022-08-14T09:08:14;98153.16;;;30.06;45.34
11912;BME280;6016;41.928;25.556;2022-08-14T09:10:43;98154.31;;;30.00;46.09
11912;BME280;6016;41.928;25.556;2022-08-14T09:13:10;98135.16;;;29.86;46.11
11912;BME280;6016;41.928;25.556;2022-08-14T09:15:39;98087.78;;;29.48;46.47
11912;BME280;6016;41.928;25.556;2022-08-14T09:18:08;98138.63;;;29.92;46.46
11912;BME280;6016;41.928;25.556;2022-08-14T09:20:38;98130.69;;;29.95;46.62
11912;BME280;6016;41.928;25.556;2022-08-14T09:23:06;98096.34;;;29.80;45.83
11912;BME280;6016;41.928;25.556;2022-08-14T09:25:34;98133.19;;;30.16;45.69
11912;BME280;6016;41.928;25.556;2022-08-14T09:28:03;98125.38;;;30.28;45.46
11912;BME280;6016;41.928;25.556;2022-08-14T09:30:31;98127.94;;;30.39;45.31
11912;BME280;6016;41.928;25.556;2022-08-14T09:33:06;98127.72;;;30.54;44.58
11912;BME280;6016;41.928;25.556;2022-08-14T09:35:46;98126.81;;;30.59;44.73
11912;BME280;6016;41.928;25.556;2022-08-14T09:38:21;98099.41;;;30.55;45.17
11912;BME280;6016;41.928;25.556;2022-08-14T09:40:58;98116.50;;;30.75;44.83
11912;BME280;6016;41.928;25.556;2022-08-14T09:43:35;98119.34;;;30.70;44.38
11912;BME280;6016;41.928;25.556;2022-08-14T09:46:08;98112.00;;;30.84;44.19
11912;BME280;6016;41.928;25.556;2022-08-14T09:48:37;98117.06;;;30.91;43.96
11912;BME280;6016;41.928;25.556;2022-08-14T09:51:06;98115.34;;;30.95;43.57
11912;BME280;6016;41.928;25.556;2022-08-14T09:53:38;98118.00;;;31.00;42.85
11912;BME280;6016;41.928;25.556;2022-08-14T09:56:08;98111.13;;;31.03;43.31
11912;BME280;6016;41.928;25.556;2022-08-14T09:58:38;98104.38;;;31.00;42.88
11912;BME280;6016;41.928;25.556;2022-08-14T10:01:10;98112.94;;;31.08;42.59
11912;BME280;6016;41.928;25.556;2022-08-14T10:03:47;98115.28;;;31.00;43.51
11912;BME280;6016;41.928;25.556;2022-08-14T10:06:16;98093.66;;;30.90;43.55
11912;BME280;6016;41.928;25.556;2022-08-14T10:08:47;98099.22;;;30.99;43.98
11912;BME280;6016;41.928;25.556;2022-08-14T10:11:21;98058.03;;;30.72;43.81
11912;BME280;6016;41.928;25.556;2022-08-14T10:13:51;98095.78;;;30.93;43.67
11912;BME280;6016;41.928;25.556;2022-08-14T10:16:19;98085.38;;;30.95;44.52
11912;BME280;6016;41.928;25.556;2022-08-14T10:18:48;98043.25;;;30.59;44.54
11912;BME280;6016;41.928;25.556;2022-08-14T10:21:16;98016.19;;;30.49;44.35
11912;BME280;6016;41.928;25.556;2022-08-14T10:23:45;98090.31;;;30.79;44.33
11912;BME280;6016;41.928;25.556;2022-08-14T10:26:16;98091.63;;;30.82;44.50
11912;BME280;6016;41.928;25.556;2022-08-14T10:28:44;98083.66;;;30.85;44.72
11912;BME280;6016;41.928;25.556;2022-08-14T10:31:19;98083.06;;;30.88;44.45
11912;BME280;6016;41.928;25.556;2022-08-14T10:34:00;98081.94;;;30.90;44.42
11912;BME280;6016;41.928;25.556;2022-08-14T10:36:28;98095.44;;;30.81;43.66
11912;BME280;6016;41.928;25.556;2022-08-14T10:38:59;98073.34;;;30.49;44.36
11912;BME280;6016;41.928;25.556;2022-08-14T10:41:37;98110.34;;;30.50;44.43
11912;BME280;6016;41.928;25.556;2022-08-14T10:44:08;98102.94;;;30.37;44.47
11912;BME280;6016;41.928;25.556;2022-08-14T10:46:42;98112.88;;;30.27;44.35
11912;BME280;6016;41.928;25.556;2022-08-14T10:49:19;98113.03;;;30.17;44.28
11912;BME280;6016;41.928;25.556;2022-08-14T10:51:58;98110.47;;;30.01;44.42
11912;BME280;6016;41.928;25.556;2022-08-14T10:54:35;98098.50;;;29.83;43.76
11912;BME280;6016;41.928;25.556;2022-08-14T10:57:17;98090.69;;;29.76;44.64
11912;BME280;6016;41.928;25.556;2022-08-14T10:59:47;98096.19;;;29.71;44.58
11912;BME280;6016;41.928;25.556;2022-08-14T11:02:30;98102.69;;;29.51;44.01
11912;BME280;6016;41.928;25.556;2022-08-14T11:05:07;98085.13;;;29.38;44.65
11912;BME280;6016;41.928;25.556;2022-08-14T11:07:39;98094.94;;;29.39;44.44
11912;BME280;6016;41.928;25.556;2022-08-14T11:10:08;98047.53;;;29.02;44.00
11912;BME280;6016;41.928;25.556;2022-08-14T11:12:42;98084.63;;;29.12;43.86
11912;BME280;6016;41.928;25.556;2022-08-14T11:15:14;98098.91;;;28.93;44.23
11912;BME280;6016;41.928;25.556;2022-08-14T11:17:44;98107.97;;;28.83;45.10
11912;BME280;6016;41.928;25.556;2022-08-14T11:20:12;98107.19;;;28.43;45.40
11912;BME280;6016;41.928;25.556;2022-08-14T11:22:40;98120.31;;;28.65;45.96
11912;BME280;6016;41.928;25.556;2022-08-14T11:25:09;98113.91;;;28.50;45.94
11912;BME280;6016;41.928;25.556;2022-08-14T11:27:39;98124.19;;;28.54;46.72
11912;BME280;6016;41.928;25.556;2022-08-14T11:30:08;98132.19;;;28.40;47.15
11912;BME280;6016;41.928;25.556;2022-08-14T11:32:38;98137.34;;;28.36;47.33
11912;BME280;6016;41.928;25.556;2022-08-14T11:35:10;98140.72;;;28.12;47.92
11912;BME280;6016;41.928;25.556;2022-08-14T11:37:46;98077.56;;;27.56;49.02
11912;BME280;6016;41.928;25.556;2022-08-14T11:40:15;98121.00;;;27.96;48.59
11912;BME280;6016;41.928;25.556;2022-08-14T11:42:45;97986.72;;;27.08;48.13
11912;BME280;6016;41.928;25.556;2022-08-14T11:45:12;98125.84;;;28.04;48.47
11912;BME280;6016;41.928;25.556;2022-08-14T11:47:39;98111.00;;;27.86;49.03
11912;BME280;6016;41.928;25.556;2022-08-14T11:50:15;98106.44;;;27.82;49.71
11912;BME280;6016;41.928;25.556;2022-08-14T11:52:44;98088.31;;;27.66;50.11
11912;BME280;6016;41.928;25.556;2022-08-14T11:55:12;98101.88;;;27.72;50.34
11912;BME280;6016;41.928;25.556;2022-08-14T11:57:41;98076.75;;;27.50;50.57
11912;BME280;6016;41.928;25.556;2022-08-14T12:00:10;98105.38;;;27.72;50.34
11912;BME280;6016;41.928;25.556;2022-08-14T12:02:48;98133.34;;;27.62;50.51
11912;BME280;6016;41.928;25.556;2022-08-14T12:05:27;98143.38;;;27.57;51.03
11912;BME280;6016;41.928;25.556;2022-08-14T12:07:54;98151.50;;;27.46;50.49
11912;BME280;6016;41.928;25.556;2022-08-14T12:10:22;98167.75;;;27.46;51.28
11912;BME280;6016;41.928;25.556;2022-08-14T12:12:49;97934.09;;;25.87;51.13
11912;BME280;6016;41.928;25.556;2022-08-14T12:15:28;98136.91;;;27.37;50.17
11912;BME280;6016;41.928;25.556;2022-08-14T12:17:55;98172.34;;;27.72;51.19
11912;BME280;6016;41.928;25.556;2022-08-14T12:20:30;98175.63;;;27.48;51.58
11912;BME280;6016;41.928;25.556;2022-08-14T12:22:58;98169.38;;;27.47;52.00
11912;BME280;6016;41.928;25.556;2022-08-14T12:25:26;98184.00;;;27.57;52.08
11912;BME280;6016;41.928;25.556;2022-08-14T12:27:54;98192.41;;;27.60;52.71
11912;BME280;6016;41.928;25.556;2022-08-14T12:30:29;98206.50;;;27.42;54.55
11912;BME280;6016;41.928;25.556;2022-08-14T12:32:57;98198.69;;;27.14;55.65
11912;BME280;6016;41.928;25.556;2022-08-14T12:35:36;98202.19;;;27.09;55.49
11912;BME280;6016;41.928;25.556;2022-08-14T12:38:03;98164.81;;;26.80;55.67
11912;BME280;6016;41.928;25.556;2022-08-14T12:40:30;98205.69;;;27.10;55.76
11912;BME280;6016;41.928;25.556;2022-08-14T12:42:59;98189.72;;;26.88;55.96
11912;BME280;6016;41.928;25.556;2022-08-14T12:45:32;98209.22;;;26.90;55.61
11912;BME280;6016;41.928;25.556;2022-08-14T12:48:01;98201.63;;;26.81;55.93
11912;BME280;6016;41.928;25.556;2022-08-14T12:50:40;98217.28;;;26.79;56.07
11912;BME280;6016;41.928;25.556;2022-08-14T12:53:08;98206.16;;;26.60;56.51
11912;BME280;6016;41.928;25.556;2022-08-14T12:55:35;98204.84;;;26.68;56.07
11912;BME280;6016;41.928;25.556;2022-08-14T12:58:03;98208.34;;;26.68;55.91
11912;BME280;6016;41.928;25.556;2022-08-14T13:00:32;98202.41;;;26.61;56.32
11912;BME280;6016;41.928;25.556;2022-08-14T13:02:59;98207.81;;;26.61;56.21
11912;BME280;6016;41.928;25.556;2022-08-14T13:05:28;98211.09;;;26.74;55.54
11912;BME280;6016;41.928;25.556;2022-08-14T13:07:58;98213.53;;;26.86;54.62
11912;BME280;6016;41.928;25.556;2022-08-14T13:10:25;98220.03;;;26.90;54.59
11912;BME280;6016;41.928;25.556;2022-08-14T13:12:55;98142.31;;;26.38;54.74